Accueil
METAR-TAF:

METAR-TAF

Aéroports :

Bruxelles, Zaventem,

Aéroport de Bruxelles

latitude: Belgique, longitude: 50-54N, altitude: 004-32E m

Observation

Le bulletin a été fait il y a 43 minutes, à 12:20 UTC
Vent 8 kt de est/nord-est, variant entre nord/nord-est et est
Température 13°C
Humidité 54%
Pression 1023 hPa
Visibilité 10 km ou plus
pas de nuages en-dessous de 1500 mètres et pas de cumulonimbus.

METAR: EBBR 261220Z 06008KT 020V100 CAVOK 13/04 Q1023 NOSIG

Heure: 13:03 (13:03 UTC)

Prévision

Le bulletin a été fait il y a 1 heure et 53 minutes, à 11:10 UTC
Prévision valable du 26 à 12 UTC au 27 à 18 UTC
Vent 8 kt de est/nord-est
Visibilité 10 km ou plus
Quelques nuages à une hauteur de 2000 ft

TAF: EBBR 261110Z 2612/2718 06008KT 9999 FEW020

Observations et prévisions météorologiques de plus de 4000 aéroports (messages METAR et TAF).

Les stations disponibles sont représentées par des disques jaunes et rouges sur la carte.

Passer la souris dessus pour voir le nom de la station.

Cliquer dessus pour voir les observations et prévisions météorologiques.

Pour changer de carte: cliquez sur les boutons verts avec une croix noire pour zoomer, sur le bouton vert avec un tiret pour effectuer un zoom arrière, ou sur les flèches vertes pour les cartes adjacentes.


METAR-TAF: